sensor_id;sensor_type;location;lat;lon;timestamp;P1;durP1;ratioP1;P2;durP2;ratioP2
65073;SDS011;52218;51.224;-2.328;2022-08-02T00:02:37;2.25;;;0.60;;
65073;SDS011;52218;51.224;-2.328;2022-08-02T00:06:19;0.90;;;0.50;;
65073;SDS011;52218;51.224;-2.328;2022-08-02T00:10:02;2.63;;;0.70;;
65073;SDS011;52218;51.224;-2.328;2022-08-02T00:13:44;2.42;;;0.80;;
65073;SDS011;52218;51.224;-2.328;2022-08-02T00:17:26;2.67;;;0.73;;
65073;SDS011;52218;51.224;-2.328;2022-08-02T00:21:08;3.70;;;0.90;;
65073;SDS011;52218;51.224;-2.328;2022-08-02T00:24:51;1.40;;;0.57;;
65073;SDS011;52218;51.224;-2.328;2022-08-02T00:28:33;1.65;;;0.68;;
65073;SDS011;52218;51.224;-2.328;2022-08-02T00:32:15;2.45;;;0.60;;
65073;SDS011;52218;51.224;-2.328;2022-08-02T00:35:57;2.10;;;0.70;;
65073;SDS011;52218;51.224;-2.328;2022-08-02T00:39:40;1.05;;;0.50;;
65073;SDS011;52218;51.224;-2.328;2022-08-02T00:43:23;0.95;;;0.50;;
65073;SDS011;52218;51.224;-2.328;2022-08-02T00:47:05;1.75;;;0.65;;
65073;SDS011;52218;51.224;-2.328;2022-08-02T00:50:47;1.27;;;0.60;;
65073;SDS011;52218;51.224;-2.328;2022-08-02T00:54:29;1.60;;;0.60;;
65073;SDS011;52218;51.224;-2.328;2022-08-02T00:58:11;1.25;;;0.70;;
65073;SDS011;52218;51.224;-2.328;2022-08-02T01:01:53;2.08;;;0.88;;
65073;SDS011;52218;51.224;-2.328;2022-08-02T01:05:38;1.52;;;0.63;;
65073;SDS011;52218;51.224;-2.328;2022-08-02T01:09:41;1.88;;;0.77;;
65073;SDS011;52218;51.224;-2.328;2022-08-02T01:13:24;1.27;;;0.73;;
65073;SDS011;52218;51.224;-2.328;2022-08-02T01:17:28;1.40;;;0.90;;
65073;SDS011;52218;51.224;-2.328;2022-08-02T01:29:06;1.48;;;0.75;;
65073;SDS011;52218;51.224;-2.328;2022-08-02T01:33:36;1.27;;;0.70;;
65073;SDS011;52218;51.224;-2.328;2022-08-02T01:41:25;3.25;;;0.88;;
65073;SDS011;52218;51.224;-2.328;2022-08-02T01:45:08;1.13;;;0.55;;
65073;SDS011;52218;51.224;-2.328;2022-08-02T01:48:54;1.05;;;0.50;;
65073;SDS011;52218;51.224;-2.328;2022-08-02T01:52:40;1.95;;;0.70;;
65073;SDS011;52218;51.224;-2.328;2022-08-02T01:56:34;1.83;;;0.50;;
65073;SDS011;52218;51.224;-2.328;2022-08-02T02:00:17;1.50;;;0.57;;
65073;SDS011;52218;51.224;-2.328;2022-08-02T02:04:01;1.13;;;0.65;;
65073;SDS011;52218;51.224;-2.328;2022-08-02T02:07:44;1.10;;;0.68;;
65073;SDS011;52218;51.224;-2.328;2022-08-02T02:11:29;1.35;;;0.70;;
65073;SDS011;52218;51.224;-2.328;2022-08-02T02:15:33;1.30;;;0.70;;
65073;SDS011;52218;51.224;-2.328;2022-08-02T02:19:21;2.53;;;0.77;;
65073;SDS011;52218;51.224;-2.328;2022-08-02T02:23:04;0.98;;;0.60;;
65073;SDS011;52218;51.224;-2.328;2022-08-02T02:26:48;2.15;;;0.80;;
65073;SDS011;52218;51.224;-2.328;2022-08-02T02:30:32;1.13;;;0.60;;
65073;SDS011;52218;51.224;-2.328;2022-08-02T02:34:17;2.35;;;0.60;;
65073;SDS011;52218;51.224;-2.328;2022-08-02T02:38:15;1.00;;;0.50;;
65073;SDS011;52218;51.224;-2.328;2022-08-02T02:42:00;1.27;;;0.70;;
65073;SDS011;52218;51.224;-2.328;2022-08-02T02:45:44;2.22;;;0.50;;
65073;SDS011;52218;51.224;-2.328;2022-08-02T02:49:27;1.45;;;0.60;;
65073;SDS011;52218;51.224;-2.328;2022-08-02T02:53:14;1.05;;;0.50;;
65073;SDS011;52218;51.224;-2.328;2022-08-02T02:56:58;1.45;;;0.88;;
65073;SDS011;52218;51.224;-2.328;2022-08-02T03:00:41;1.08;;;0.60;;
65073;SDS011;52218;51.224;-2.328;2022-08-02T03:04:43;1.73;;;0.80;;
65073;SDS011;52218;51.224;-2.328;2022-08-02T03:08:37;3.17;;;0.88;;
65073;SDS011;52218;51.224;-2.328;2022-08-02T03:12:20;2.28;;;0.90;;
65073;SDS011;52218;51.224;-2.328;2022-08-02T03:16:12;1.00;;;0.50;;
65073;SDS011;52218;51.224;-2.328;2022-08-02T03:19:54;1.17;;;0.60;;
65073;SDS011;52218;51.224;-2.328;2022-08-02T03:23:37;1.20;;;0.55;;
65073;SDS011;52218;51.224;-2.328;2022-08-02T03:27:20;1.75;;;0.60;;
65073;SDS011;52218;51.224;-2.328;2022-08-02T03:31:02;2.25;;;0.95;;
65073;SDS011;52218;51.224;-2.328;2022-08-02T03:34:44;3.08;;;0.88;;
65073;SDS011;52218;51.224;-2.328;2022-08-02T03:38:26;3.30;;;0.95;;
65073;SDS011;52218;51.224;-2.328;2022-08-02T03:42:10;2.22;;;0.70;;
65073;SDS011;52218;51.224;-2.328;2022-08-02T03:45:55;3.42;;;0.80;;
65073;SDS011;52218;51.224;-2.328;2022-08-02T03:49:39;1.08;;;0.60;;
65073;SDS011;52218;51.224;-2.328;2022-08-02T03:53:22;1.33;;;0.73;;
65073;SDS011;52218;51.224;-2.328;2022-08-02T03:57:06;1.88;;;0.70;;
65073;SDS011;52218;51.224;-2.328;2022-08-02T04:00:53;2.65;;;0.98;;
65073;SDS011;52218;51.224;-2.328;2022-08-02T04:04:36;2.88;;;0.70;;
65073;SDS011;52218;51.224;-2.328;2022-08-02T04:08:18;2.63;;;0.77;;
65073;SDS011;52218;51.224;-2.328;2022-08-02T04:12:17;2.17;;;0.60;;
65073;SDS011;52218;51.224;-2.328;2022-08-02T04:16:03;3.88;;;0.80;;
65073;SDS011;52218;51.224;-2.328;2022-08-02T04:19:53;3.95;;;0.77;;
65073;SDS011;52218;51.224;-2.328;2022-08-02T04:23:38;3.70;;;0.73;;
65073;SDS011;52218;51.224;-2.328;2022-08-02T04:27:22;4.70;;;0.82;;
65073;SDS011;52218;51.224;-2.328;2022-08-02T04:31:25;1.73;;;0.60;;
65073;SDS011;52218;51.224;-2.328;2022-08-02T04:35:08;2.60;;;0.90;;
65073;SDS011;52218;51.224;-2.328;2022-08-02T04:39:00;3.05;;;0.68;;
65073;SDS011;52218;51.224;-2.328;2022-08-02T04:42:42;2.88;;;0.50;;
65073;SDS011;52218;51.224;-2.328;2022-08-02T04:46:24;2.03;;;0.60;;
65073;SDS011;52218;51.224;-2.328;2022-08-02T04:50:07;2.35;;;0.60;;
65073;SDS011;52218;51.224;-2.328;2022-08-02T04:53:49;2.58;;;0.60;;
65073;SDS011;52218;51.224;-2.328;2022-08-02T04:57:31;2.95;;;0.60;;
65073;SDS011;52218;51.224;-2.328;2022-08-02T05:01:33;2.15;;;0.70;;
65073;SDS011;52218;51.224;-2.328;2022-08-02T05:05:19;1.92;;;0.63;;
65073;SDS011;52218;51.224;-2.328;2022-08-02T05:09:01;3.15;;;0.60;;
65073;SDS011;52218;51.224;-2.328;2022-08-02T05:12:43;2.55;;;0.63;;
65073;SDS011;52218;51.224;-2.328;2022-08-02T05:16:26;2.47;;;0.77;;
65073;SDS011;52218;51.224;-2.328;2022-08-02T05:23:55;3.58;;;0.70;;
65073;SDS011;52218;51.224;-2.328;2022-08-02T05:27:37;2.65;;;0.60;;
65073;SDS011;52218;51.224;-2.328;2022-08-02T05:31:19;1.63;;;0.55;;
65073;SDS011;52218;51.224;-2.328;2022-08-02T05:35:02;1.85;;;0.50;;
65073;SDS011;52218;51.224;-2.328;2022-08-02T05:38:44;3.38;;;0.70;;
65073;SDS011;52218;51.224;-2.328;2022-08-02T05:42:30;2.83;;;0.77;;
65073;SDS011;52218;51.224;-2.328;2022-08-02T05:46:12;3.42;;;1.00;;
65073;SDS011;52218;51.224;-2.328;2022-08-02T05:49:54;1.65;;;0.43;;
65073;SDS011;52218;51.224;-2.328;2022-08-02T05:53:45;2.55;;;0.50;;
65073;SDS011;52218;51.224;-2.328;2022-08-02T05:58:08;3.28;;;0.90;;
65073;SDS011;52218;51.224;-2.328;2022-08-02T06:01:45;1.88;;;0.60;;
65073;SDS011;52218;51.224;-2.328;2022-08-02T06:05:33;4.18;;;0.63;;
65073;SDS011;52218;51.224;-2.328;2022-08-02T06:09:20;1.27;;;0.50;;
65073;SDS011;52218;51.224;-2.328;2022-08-02T06:13:08;1.08;;;0.47;;
65073;SDS011;52218;51.224;-2.328;2022-08-02T06:16:55;2.28;;;0.30;;
65073;SDS011;52218;51.224;-2.328;2022-08-02T06:20:37;2.75;;;0.60;;
65073;SDS011;52218;51.224;-2.328;2022-08-02T06:24:20;2.25;;;0.65;;
65073;SDS011;52218;51.224;-2.328;2022-08-02T06:28:03;1.20;;;0.32;;
65073;SDS011;52218;51.224;-2.328;2022-08-02T06:31:51;2.38;;;0.60;;
65073;SDS011;52218;51.224;-2.328;2022-08-02T06:35:36;2.33;;;0.40;;
65073;SDS011;52218;51.224;-2.328;2022-08-02T06:47:09;4.05;;;0.43;;
65073;SDS011;52218;51.224;-2.328;2022-08-02T06:50:53;3.92;;;0.40;;
65073;SDS011;52218;51.224;-2.328;2022-08-02T06:54:35;3.20;;;0.32;;
65073;SDS011;52218;51.224;-2.328;2022-08-02T06:58:19;2.15;;;0.40;;
65073;SDS011;52218;51.224;-2.328;2022-08-02T07:02:01;1.85;;;0.40;;
65073;SDS011;52218;51.224;-2.328;2022-08-02T07:05:44;3.70;;;0.50;;
65073;SDS011;52218;51.224;-2.328;2022-08-02T07:09:28;3.58;;;0.52;;
65073;SDS011;52218;51.224;-2.328;2022-08-02T07:13:10;4.30;;;0.68;;
65073;SDS011;52218;51.224;-2.328;2022-08-02T07:16:52;1.63;;;0.47;;
65073;SDS011;52218;51.224;-2.328;2022-08-02T07:20:34;2.88;;;0.40;;
65073;SDS011;52218;51.224;-2.328;2022-08-02T07:24:16;2.03;;;0.40;;
65073;SDS011;52218;51.224;-2.328;2022-08-02T07:27:58;1.42;;;0.30;;
65073;SDS011;52218;51.224;-2.328;2022-08-02T07:31:41;0.80;;;0.25;;
65073;SDS011;52218;51.224;-2.328;2022-08-02T07:35:23;0.85;;;0.30;;
65073;SDS011;52218;51.224;-2.328;2022-08-02T07:39:09;2.30;;;0.40;;
65073;SDS011;52218;51.224;-2.328;2022-08-02T07:42:53;0.77;;;0.30;;
65073;SDS011;52218;51.224;-2.328;2022-08-02T07:46:44;1.25;;;0.28;;
65073;SDS011;52218;51.224;-2.328;2022-08-02T07:50:26;2.10;;;0.35;;
65073;SDS011;52218;51.224;-2.328;2022-08-02T07:54:08;2.05;;;0.22;;
65073;SDS011;52218;51.224;-2.328;2022-08-02T07:57:57;0.95;;;0.20;;
65073;SDS011;52218;51.224;-2.328;2022-08-02T08:01:39;1.73;;;0.40;;
65073;SDS011;52218;51.224;-2.328;2022-08-02T08:05:26;0.88;;;0.15;;
65073;SDS011;52218;51.224;-2.328;2022-08-02T08:09:09;0.93;;;0.30;;
65073;SDS011;52218;51.224;-2.328;2022-08-02T08:12:51;0.47;;;0.20;;
65073;SDS011;52218;51.224;-2.328;2022-08-02T08:16:35;0.73;;;0.15;;
65073;SDS011;52218;51.224;-2.328;2022-08-02T08:20:17;1.13;;;0.10;;
65073;SDS011;52218;51.224;-2.328;2022-08-02T08:23:59;0.70;;;0.20;;
65073;SDS011;52218;51.224;-2.328;2022-08-02T08:27:48;0.80;;;0.15;;
65073;SDS011;52218;51.224;-2.328;2022-08-02T08:31:33;1.95;;;0.20;;
65073;SDS011;52218;51.224;-2.328;2022-08-02T08:35:15;0.60;;;0.20;;
65073;SDS011;52218;51.224;-2.328;2022-08-02T08:38:57;3.00;;;0.30;;
65073;SDS011;52218;51.224;-2.328;2022-08-02T08:42:40;2.08;;;0.38;;
65073;SDS011;52218;51.224;-2.328;2022-08-02T08:46:26;1.65;;;0.30;;
65073;SDS011;52218;51.224;-2.328;2022-08-02T08:50:20;2.65;;;0.30;;
65073;SDS011;52218;51.224;-2.328;2022-08-02T08:54:06;1.40;;;0.28;;
65073;SDS011;52218;51.224;-2.328;2022-08-02T08:57:50;0.47;;;0.10;;
65073;SDS011;52218;51.224;-2.328;2022-08-02T09:01:35;0.75;;;0.20;;
65073;SDS011;52218;51.224;-2.328;2022-08-02T09:05:33;2.10;;;0.28;;
65073;SDS011;52218;51.224;-2.328;2022-08-02T09:09:16;1.35;;;0.30;;
65073;SDS011;52218;51.224;-2.328;2022-08-02T09:17:11;3.30;;;0.30;;
65073;SDS011;52218;51.224;-2.328;2022-08-02T09:20:55;1.27;;;0.30;;
65073;SDS011;52218;51.224;-2.328;2022-08-02T09:24:40;1.00;;;0.35;;
65073;SDS011;52218;51.224;-2.328;2022-08-02T09:28:29;1.83;;;0.40;;
65073;SDS011;52218;51.224;-2.328;2022-08-02T09:32:13;2.38;;;0.30;;
65073;SDS011;52218;51.224;-2.328;2022-08-02T09:36:00;1.55;;;0.30;;
65073;SDS011;52218;51.224;-2.328;2022-08-02T09:39:47;1.33;;;0.55;;
65073;SDS011;52218;51.224;-2.328;2022-08-02T09:43:40;0.73;;;0.20;;
65073;SDS011;52218;51.224;-2.328;2022-08-02T09:47:43;2.47;;;0.30;;
65073;SDS011;52218;51.224;-2.328;2022-08-02T09:51:33;0.82;;;0.20;;
65073;SDS011;52218;51.224;-2.328;2022-08-02T09:55:41;1.52;;;0.30;;
65073;SDS011;52218;51.224;-2.328;2022-08-02T09:59:24;1.65;;;0.20;;
65073;SDS011;52218;51.224;-2.328;2022-08-02T10:03:07;2.30;;;0.30;;
65073;SDS011;52218;51.224;-2.328;2022-08-02T10:07:02;1.47;;;0.40;;
65073;SDS011;52218;51.224;-2.328;2022-08-02T10:10:45;1.98;;;0.28;;
65073;SDS011;52218;51.224;-2.328;2022-08-02T10:14:27;1.33;;;0.40;;
65073;SDS011;52218;51.224;-2.328;2022-08-02T10:18:10;1.90;;;0.30;;
65073;SDS011;52218;51.224;-2.328;2022-08-02T10:22:12;1.13;;;0.30;;
65073;SDS011;52218;51.224;-2.328;2022-08-02T10:25:57;2.10;;;0.30;;
65073;SDS011;52218;51.224;-2.328;2022-08-02T10:29:41;1.63;;;0.30;;
65073;SDS011;52218;51.224;-2.328;2022-08-02T10:33:35;1.70;;;0.20;;
65073;SDS011;52218;51.224;-2.328;2022-08-02T10:37:19;1.30;;;0.25;;
65073;SDS011;52218;51.224;-2.328;2022-08-02T10:41:02;2.42;;;0.30;;
65073;SDS011;52218;51.224;-2.328;2022-08-02T10:44:44;1.35;;;0.30;;
65073;SDS011;52218;51.224;-2.328;2022-08-02T10:48:26;1.30;;;0.20;;
65073;SDS011;52218;51.224;-2.328;2022-08-02T10:52:08;0.85;;;0.35;;
65073;SDS011;52218;51.224;-2.328;2022-08-02T10:55:52;2.08;;;0.45;;
65073;SDS011;52218;51.224;-2.328;2022-08-02T10:59:36;1.95;;;0.47;;
65073;SDS011;52218;51.224;-2.328;2022-08-02T11:07:10;0.60;;;0.20;;
65073;SDS011;52218;51.224;-2.328;2022-08-02T11:11:02;0.65;;;0.20;;
65073;SDS011;52218;51.224;-2.328;2022-08-02T11:15:00;2.00;;;0.38;;
65073;SDS011;52218;51.224;-2.328;2022-08-02T11:22:30;3.92;;;0.73;;
65073;SDS011;52218;51.224;-2.328;2022-08-02T11:30:12;1.05;;;0.30;;
65073;SDS011;52218;51.224;-2.328;2022-08-02T11:33:54;1.77;;;0.30;;
65073;SDS011;52218;51.224;-2.328;2022-08-02T11:37:37;1.35;;;0.20;;
65073;SDS011;52218;51.224;-2.328;2022-08-02T11:41:21;2.38;;;0.40;;
65073;SDS011;52218;51.224;-2.328;2022-08-02T11:45:24;1.90;;;0.40;;
65073;SDS011;52218;51.224;-2.328;2022-08-02T11:49:14;1.08;;;0.32;;
65073;SDS011;52218;51.224;-2.328;2022-08-02T11:52:57;2.08;;;0.40;;
65073;SDS011;52218;51.224;-2.328;2022-08-02T11:56:39;1.88;;;0.40;;
65073;SDS011;52218;51.224;-2.328;2022-08-02T12:00:21;1.30;;;0.30;;
65073;SDS011;52218;51.224;-2.328;2022-08-02T12:04:10;1.63;;;0.30;;
65073;SDS011;52218;51.224;-2.328;2022-08-02T12:07:56;2.47;;;0.52;;
65073;SDS011;52218;51.224;-2.328;2022-08-02T12:11:38;2.70;;;0.47;;
65073;SDS011;52218;51.224;-2.328;2022-08-02T12:15:32;2.67;;;0.52;;
65073;SDS011;52218;51.224;-2.328;2022-08-02T12:19:17;3.47;;;0.80;;
65073;SDS011;52218;51.224;-2.328;2022-08-02T12:23:01;3.65;;;0.60;;
65073;SDS011;52218;51.224;-2.328;2022-08-02T12:26:44;2.63;;;0.77;;
65073;SDS011;52218;51.224;-2.328;2022-08-02T12:30:28;2.80;;;0.80;;
65073;SDS011;52218;51.224;-2.328;2022-08-02T12:34:11;3.97;;;1.20;;
65073;SDS011;52218;51.224;-2.328;2022-08-02T12:38:07;4.43;;;1.00;;
65073;SDS011;52218;51.224;-2.328;2022-08-02T12:41:55;4.25;;;0.98;;
65073;SDS011;52218;51.224;-2.328;2022-08-02T12:49:34;4.00;;;0.83;;
65073;SDS011;52218;51.224;-2.328;2022-08-02T12:53:16;4.88;;;1.02;;
65073;SDS011;52218;51.224;-2.328;2022-08-02T12:57:11;6.38;;;1.20;;
65073;SDS011;52218;51.224;-2.328;2022-08-02T13:00:56;5.88;;;1.17;;
65073;SDS011;52218;51.224;-2.328;2022-08-02T13:04:40;4.67;;;1.00;;
65073;SDS011;52218;51.224;-2.328;2022-08-02T13:08:30;5.75;;;1.05;;
65073;SDS011;52218;51.224;-2.328;2022-08-02T13:12:13;6.40;;;1.02;;
65073;SDS011;52218;51.224;-2.328;2022-08-02T13:15:56;8.38;;;1.23;;
65073;SDS011;52218;51.224;-2.328;2022-08-02T13:19:39;4.57;;;1.40;;
65073;SDS011;52218;51.224;-2.328;2022-08-02T13:23:22;5.70;;;1.15;;
65073;SDS011;52218;51.224;-2.328;2022-08-02T13:27:27;5.35;;;1.27;;
65073;SDS011;52218;51.224;-2.328;2022-08-02T13:31:09;6.13;;;1.00;;
65073;SDS011;52218;51.224;-2.328;2022-08-02T13:35:11;4.80;;;1.10;;
65073;SDS011;52218;51.224;-2.328;2022-08-02T13:38:58;6.40;;;1.10;;
65073;SDS011;52218;51.224;-2.328;2022-08-02T13:42:41;8.10;;;1.33;;
65073;SDS011;52218;51.224;-2.328;2022-08-02T13:46:23;5.03;;;0.90;;
65073;SDS011;52218;51.224;-2.328;2022-08-02T13:50:09;6.13;;;1.63;;
65073;SDS011;52218;51.224;-2.328;2022-08-02T13:53:51;3.85;;;1.10;;
65073;SDS011;52218;51.224;-2.328;2022-08-02T13:57:33;6.25;;;1.15;;
65073;SDS011;52218;51.224;-2.328;2022-08-02T14:01:15;6.47;;;1.20;;
65073;SDS011;52218;51.224;-2.328;2022-08-02T14:04:57;8.48;;;1.40;;
65073;SDS011;52218;51.224;-2.328;2022-08-02T14:08:39;7.85;;;1.30;;
65073;SDS011;52218;51.224;-2.328;2022-08-02T14:12:21;5.72;;;1.30;;
65073;SDS011;52218;51.224;-2.328;2022-08-02T14:16:04;7.13;;;1.38;;
65073;SDS011;52218;51.224;-2.328;2022-08-02T14:19:46;7.38;;;1.52;;
65073;SDS011;52218;51.224;-2.328;2022-08-02T14:23:28;7.32;;;1.45;;
65073;SDS011;52218;51.224;-2.328;2022-08-02T14:27:30;6.20;;;1.40;;
65073;SDS011;52218;51.224;-2.328;2022-08-02T14:31:19;5.28;;;1.38;;
65073;SDS011;52218;51.224;-2.328;2022-08-02T14:35:01;6.32;;;1.40;;
65073;SDS011;52218;51.224;-2.328;2022-08-02T14:38:43;6.40;;;1.30;;
65073;SDS011;52218;51.224;-2.328;2022-08-02T14:42:25;7.43;;;1.55;;
65073;SDS011;52218;51.224;-2.328;2022-08-02T14:46:07;7.97;;;1.50;;
65073;SDS011;52218;51.224;-2.328;2022-08-02T14:49:49;7.32;;;1.55;;
65073;SDS011;52218;51.224;-2.328;2022-08-02T14:53:32;7.47;;;1.30;;
65073;SDS011;52218;51.224;-2.328;2022-08-02T14:57:29;6.60;;;1.10;;
65073;SDS011;52218;51.224;-2.328;2022-08-02T15:01:12;5.88;;;1.38;;
65073;SDS011;52218;51.224;-2.328;2022-08-02T15:04:54;7.95;;;1.90;;
65073;SDS011;52218;51.224;-2.328;2022-08-02T15:08:36;7.88;;;1.67;;
65073;SDS011;52218;51.224;-2.328;2022-08-02T15:12:18;8.13;;;1.48;;
65073;SDS011;52218;51.224;-2.328;2022-08-02T15:16:00;4.50;;;1.50;;
65073;SDS011;52218;51.224;-2.328;2022-08-02T15:19:42;9.13;;;1.40;;
65073;SDS011;52218;51.224;-2.328;2022-08-02T15:23:40;7.28;;;1.77;;
65073;SDS011;52218;51.224;-2.328;2022-08-02T15:27:22;5.75;;;1.65;;
65073;SDS011;52218;51.224;-2.328;2022-08-02T15:31:04;8.52;;;1.80;;
65073;SDS011;52218;51.224;-2.328;2022-08-02T15:34:46;6.57;;;1.40;;
65073;SDS011;52218;51.224;-2.328;2022-08-02T15:38:28;5.88;;;1.60;;
65073;SDS011;52218;51.224;-2.328;2022-08-02T15:42:10;4.85;;;1.30;;
65073;SDS011;52218;51.224;-2.328;2022-08-02T15:45:52;8.18;;;1.50;;
65073;SDS011;52218;51.224;-2.328;2022-08-02T15:49:34;7.00;;;1.70;;
65073;SDS011;52218;51.224;-2.328;2022-08-02T15:53:21;8.43;;;1.52;;
65073;SDS011;52218;51.224;-2.328;2022-08-02T15:57:03;9.23;;;1.80;;
65073;SDS011;52218;51.224;-2.328;2022-08-02T16:00:46;6.65;;;1.63;;
65073;SDS011;52218;51.224;-2.328;2022-08-02T16:04:27;7.60;;;1.60;;
65073;SDS011;52218;51.224;-2.328;2022-08-02T16:08:09;8.63;;;1.42;;
65073;SDS011;52218;51.224;-2.328;2022-08-02T16:11:51;6.82;;;1.60;;
65073;SDS011;52218;51.224;-2.328;2022-08-02T16:15:33;7.45;;;1.52;;
65073;SDS011;52218;51.224;-2.328;2022-08-02T16:19:15;9.77;;;1.60;;
65073;SDS011;52218;51.224;-2.328;2022-08-02T16:23:17;6.65;;;1.55;;
65073;SDS011;52218;51.224;-2.328;2022-08-02T16:27:19;9.05;;;1.73;;
65073;SDS011;52218;51.224;-2.328;2022-08-02T16:31:01;7.93;;;1.92;;
65073;SDS011;52218;51.224;-2.328;2022-08-02T16:34:51;9.25;;;1.80;;
65073;SDS011;52218;51.224;-2.328;2022-08-02T16:38:49;11.10;;;3.03;;
65073;SDS011;52218;51.224;-2.328;2022-08-02T16:42:31;6.00;;;1.58;;
65073;SDS011;52218;51.224;-2.328;2022-08-02T16:46:13;5.15;;;1.63;;
65073;SDS011;52218;51.224;-2.328;2022-08-02T16:49:55;9.13;;;1.65;;
65073;SDS011;52218;51.224;-2.328;2022-08-02T16:53:50;7.35;;;1.45;;
65073;SDS011;52218;51.224;-2.328;2022-08-02T16:57:52;9.57;;;1.83;;
65073;SDS011;52218;51.224;-2.328;2022-08-02T17:01:37;7.45;;;1.60;;
65073;SDS011;52218;51.224;-2.328;2022-08-02T17:05:39;7.90;;;1.33;;
65073;SDS011;52218;51.224;-2.328;2022-08-02T17:09:36;8.07;;;1.45;;
65073;SDS011;52218;51.224;-2.328;2022-08-02T17:13:38;5.03;;;1.52;;
65073;SDS011;52218;51.224;-2.328;2022-08-02T17:17:20;6.60;;;1.58;;
65073;SDS011;52218;51.224;-2.328;2022-08-02T17:21:14;8.60;;;1.67;;
65073;SDS011;52218;51.224;-2.328;2022-08-02T17:24:58;6.65;;;1.40;;
65073;SDS011;52218;51.224;-2.328;2022-08-02T17:28:41;7.72;;;1.58;;
65073;SDS011;52218;51.224;-2.328;2022-08-02T17:32:43;11.27;;;1.70;;
65073;SDS011;52218;51.224;-2.328;2022-08-02T17:36:26;8.75;;;1.60;;
65073;SDS011;52218;51.224;-2.328;2022-08-02T17:40:08;8.85;;;1.50;;
65073;SDS011;52218;51.224;-2.328;2022-08-02T17:43:50;6.25;;;1.45;;
65073;SDS011;52218;51.224;-2.328;2022-08-02T17:47:33;4.72;;;1.42;;
65073;SDS011;52218;51.224;-2.328;2022-08-02T17:51:22;5.78;;;1.48;;
65073;SDS011;52218;51.224;-2.328;2022-08-02T17:55:25;7.05;;;1.52;;
65073;SDS011;52218;51.224;-2.328;2022-08-02T17:59:21;6.45;;;1.35;;
65073;SDS011;52218;51.224;-2.328;2022-08-02T18:03:22;6.38;;;1.30;;
65073;SDS011;52218;51.224;-2.328;2022-08-02T18:07:04;6.15;;;1.30;;
65073;SDS011;52218;51.224;-2.328;2022-08-02T18:10:51;8.90;;;1.50;;
65073;SDS011;52218;51.224;-2.328;2022-08-02T18:14:34;8.35;;;1.60;;
65073;SDS011;52218;51.224;-2.328;2022-08-02T18:18:26;8.10;;;1.80;;
65073;SDS011;52218;51.224;-2.328;2022-08-02T18:22:10;5.68;;;1.33;;
65073;SDS011;52218;51.224;-2.328;2022-08-02T18:25:52;6.88;;;1.58;;
65073;SDS011;52218;51.224;-2.328;2022-08-02T18:29:35;7.10;;;1.45;;
65073;SDS011;52218;51.224;-2.328;2022-08-02T18:33:20;7.75;;;1.35;;
65073;SDS011;52218;51.224;-2.328;2022-08-02T18:37:22;8.13;;;1.52;;
65073;SDS011;52218;51.224;-2.328;2022-08-02T18:41:05;6.28;;;1.38;;
65073;SDS011;52218;51.224;-2.328;2022-08-02T18:44:53;5.72;;;1.48;;
65073;SDS011;52218;51.224;-2.328;2022-08-02T18:48:37;7.20;;;1.55;;
65073;SDS011;52218;51.224;-2.328;2022-08-02T18:52:24;9.00;;;1.67;;
65073;SDS011;52218;51.224;-2.328;2022-08-02T18:56:26;5.40;;;1.70;;
65073;SDS011;52218;51.224;-2.328;2022-08-02T19:00:13;5.32;;;1.50;;
65073;SDS011;52218;51.224;-2.328;2022-08-02T19:04:01;4.50;;;1.30;;
65073;SDS011;52218;51.224;-2.328;2022-08-02T19:07:44;7.00;;;1.65;;
65073;SDS011;52218;51.224;-2.328;2022-08-02T19:11:34;7.63;;;1.58;;
65073;SDS011;52218;51.224;-2.328;2022-08-02T19:15:16;8.13;;;1.42;;
65073;SDS011;52218;51.224;-2.328;2022-08-02T19:18:58;6.28;;;1.30;;
65073;SDS011;52218;51.224;-2.328;2022-08-02T19:22:44;8.93;;;1.75;;
65073;SDS011;52218;51.224;-2.328;2022-08-02T19:26:26;8.05;;;1.63;;
65073;SDS011;52218;51.224;-2.328;2022-08-02T19:30:09;9.32;;;1.60;;
65073;SDS011;52218;51.224;-2.328;2022-08-02T19:33:54;6.25;;;1.45;;
65073;SDS011;52218;51.224;-2.328;2022-08-02T19:37:47;7.57;;;1.55;;
65073;SDS011;52218;51.224;-2.328;2022-08-02T19:41:30;5.47;;;1.40;;
65073;SDS011;52218;51.224;-2.328;2022-08-02T19:49:28;7.85;;;1.70;;
65073;SDS011;52218;51.224;-2.328;2022-08-02T19:53:20;7.47;;;1.73;;
65073;SDS011;52218;51.224;-2.328;2022-08-02T19:57:03;5.78;;;1.42;;
65073;SDS011;52218;51.224;-2.328;2022-08-02T20:00:46;5.50;;;1.48;;
65073;SDS011;52218;51.224;-2.328;2022-08-02T20:04:29;6.93;;;1.50;;
65073;SDS011;52218;51.224;-2.328;2022-08-02T20:08:12;6.70;;;1.70;;
65073;SDS011;52218;51.224;-2.328;2022-08-02T20:12:12;6.30;;;1.52;;
65073;SDS011;52218;51.224;-2.328;2022-08-02T20:15:54;9.07;;;1.55;;
65073;SDS011;52218;51.224;-2.328;2022-08-02T20:19:37;6.63;;;1.40;;
65073;SDS011;52218;51.224;-2.328;2022-08-02T20:23:20;6.13;;;1.33;;
65073;SDS011;52218;51.224;-2.328;2022-08-02T20:27:14;5.50;;;1.33;;
65073;SDS011;52218;51.224;-2.328;2022-08-02T20:31:05;6.43;;;1.30;;
65073;SDS011;52218;51.224;-2.328;2022-08-02T20:34:49;8.43;;;1.48;;
65073;SDS011;52218;51.224;-2.328;2022-08-02T20:38:33;6.18;;;1.40;;
65073;SDS011;52218;51.224;-2.328;2022-08-02T20:42:19;4.00;;;1.10;;
65073;SDS011;52218;51.224;-2.328;2022-08-02T20:46:04;6.38;;;1.30;;
65073;SDS011;52218;51.224;-2.328;2022-08-02T20:49:46;6.65;;;1.50;;
65073;SDS011;52218;51.224;-2.328;2022-08-02T20:53:47;6.40;;;1.38;;
65073;SDS011;52218;51.224;-2.328;2022-08-02T20:57:36;4.78;;;1.33;;
65073;SDS011;52218;51.224;-2.328;2022-08-02T21:01:38;6.90;;;1.42;;
65073;SDS011;52218;51.224;-2.328;2022-08-02T21:05:37;6.63;;;1.30;;
65073;SDS011;52218;51.224;-2.328;2022-08-02T21:09:36;7.20;;;1.40;;
65073;SDS011;52218;51.224;-2.328;2022-08-02T21:13:34;5.40;;;1.13;;
65073;SDS011;52218;51.224;-2.328;2022-08-02T21:17:36;6.28;;;1.60;;
65073;SDS011;52218;51.224;-2.328;2022-08-02T21:21:26;5.07;;;1.40;;
65073;SDS011;52218;51.224;-2.328;2022-08-02T21:25:10;4.75;;;1.20;;
65073;SDS011;52218;51.224;-2.328;2022-08-02T21:28:56;4.53;;;1.17;;
65073;SDS011;52218;51.224;-2.328;2022-08-02T21:32:41;6.13;;;1.17;;
65073;SDS011;52218;51.224;-2.328;2022-08-02T21:36:28;5.57;;;1.38;;
65073;SDS011;52218;51.224;-2.328;2022-08-02T21:40:13;6.15;;;1.33;;
65073;SDS011;52218;51.224;-2.328;2022-08-02T21:43:56;5.53;;;1.20;;
65073;SDS011;52218;51.224;-2.328;2022-08-02T21:47:45;6.35;;;1.20;;
65073;SDS011;52218;51.224;-2.328;2022-08-02T21:51:27;4.47;;;1.27;;
65073;SDS011;52218;51.224;-2.328;2022-08-02T21:55:14;6.95;;;1.17;;
65073;SDS011;52218;51.224;-2.328;2022-08-02T21:59:01;4.47;;;1.10;;
65073;SDS011;52218;51.224;-2.328;2022-08-02T22:02:56;4.88;;;1.10;;
65073;SDS011;52218;51.224;-2.328;2022-08-02T22:06:38;4.47;;;1.60;;
65073;SDS011;52218;51.224;-2.328;2022-08-02T22:10:21;4.78;;;1.30;;
65073;SDS011;52218;51.224;-2.328;2022-08-02T22:14:04;4.65;;;1.30;;
65073;SDS011;52218;51.224;-2.328;2022-08-02T22:17:48;6.28;;;1.35;;
65073;SDS011;52218;51.224;-2.328;2022-08-02T22:21:39;6.55;;;1.40;;
65073;SDS011;52218;51.224;-2.328;2022-08-02T22:25:36;5.00;;;1.23;;
65073;SDS011;52218;51.224;-2.328;2022-08-02T22:29:18;7.03;;;1.35;;
65073;SDS011;52218;51.224;-2.328;2022-08-02T22:33:00;6.03;;;1.58;;
65073;SDS011;52218;51.224;-2.328;2022-08-02T22:37:00;6.68;;;1.23;;
65073;SDS011;52218;51.224;-2.328;2022-08-02T22:40:46;3.97;;;1.08;;
65073;SDS011;52218;51.224;-2.328;2022-08-02T22:44:29;7.28;;;1.35;;
65073;SDS011;52218;51.224;-2.328;2022-08-02T22:48:14;7.20;;;1.38;;
65073;SDS011;52218;51.224;-2.328;2022-08-02T22:51:56;6.13;;;1.00;;
65073;SDS011;52218;51.224;-2.328;2022-08-02T22:55:38;6.70;;;1.13;;
65073;SDS011;52218;51.224;-2.328;2022-08-02T22:59:22;4.78;;;1.05;;
65073;SDS011;52218;51.224;-2.328;2022-08-02T23:03:20;5.18;;;1.00;;
65073;SDS011;52218;51.224;-2.328;2022-08-02T23:07:02;5.53;;;0.98;;
65073;SDS011;52218;51.224;-2.328;2022-08-02T23:10:44;6.07;;;0.82;;